createdAt,value
2023-03-06T00:00:08.788Z,5.95
2023-03-06T00:01:00.891Z,6.45
2023-03-06T00:01:51.925Z,6.36
2023-03-06T00:03:33.749Z,6.13
2023-03-06T00:05:14.649Z,6.07
2023-03-06T00:06:55.094Z,5.83
2023-03-06T00:08:35.349Z,6.12
2023-03-06T00:09:25.892Z,6.57
2023-03-06T00:10:21.170Z,6.22
2023-03-06T00:11:14.943Z,5.90
2023-03-06T00:12:56.762Z,6.12
2023-03-06T00:14:37.615Z,5.90
2023-03-06T00:15:28.368Z,6.05
2023-03-06T00:16:19.022Z,5.80
2023-03-06T00:18:00.174Z,5.60
2023-03-06T00:19:40.644Z,5.80
2023-03-06T00:20:30.772Z,5.80
2023-03-06T00:22:15.628Z,6.00
2023-03-06T00:23:06.154Z,6.03
2023-03-06T00:23:56.522Z,6.07
2023-03-06T00:25:38.873Z,5.75
2023-03-06T00:27:19.275Z,5.67
2023-03-06T00:29:00.503Z,5.87
2023-03-06T00:29:55.363Z,5.50
2023-03-06T00:30:47.572Z,5.72
2023-03-06T00:32:28.368Z,6.10
2023-03-06T00:34:08.986Z,6.02
2023-03-06T00:34:59.873Z,5.85
2023-03-06T00:35:50.093Z,5.57
2023-03-06T00:36:41.732Z,5.95
2023-03-06T00:37:32.008Z,5.60
2023-03-06T00:38:22.989Z,5.90
2023-03-06T00:39:13.308Z,6.16
2023-03-06T00:40:07.944Z,6.10
2023-03-06T00:41:51.268Z,5.76
2023-03-06T00:42:41.929Z,5.82
2023-03-06T00:43:32.648Z,5.82
2023-03-06T00:44:22.970Z,5.45
2023-03-06T00:45:13.539Z,5.78
2023-03-06T00:46:04.136Z,5.78
2023-03-06T00:46:54.725Z,5.30
2023-03-06T00:47:44.976Z,5.62
2023-03-06T00:48:35.540Z,5.50
2023-03-06T00:49:25.938Z,5.70
2023-03-06T00:50:16.506Z,5.55
2023-03-06T00:51:12.764Z,5.80
2023-03-06T00:52:54.580Z,6.00
2023-03-06T00:54:35.183Z,6.00
2023-03-06T00:56:18.896Z,5.28
2023-03-06T00:58:00.446Z,5.60
2023-03-06T00:58:51.122Z,5.55
2023-03-06T01:00:31.913Z,5.47
2023-03-06T01:01:23.279Z,5.40
2023-03-06T01:02:14.269Z,5.37
2023-03-06T01:03:05.180Z,5.82
2023-03-06T01:03:55.711Z,5.55
2023-03-06T01:04:46.340Z,5.50
2023-03-06T01:05:37.243Z,5.90
2023-03-06T01:06:27.884Z,5.25
2023-03-06T01:07:18.208Z,5.40
2023-03-06T01:08:08.931Z,5.47
2023-03-06T01:08:58.981Z,5.15
2023-03-06T01:09:50.064Z,5.10
2023-03-06T01:10:41.006Z,5.57
2023-03-06T01:11:31.639Z,5.20
2023-03-06T01:12:23.463Z,5.47
2023-03-06T01:13:14.365Z,5.10
2023-03-06T01:14:05.242Z,5.22
2023-03-06T01:14:55.520Z,5.20
2023-03-06T01:15:45.894Z,5.10
2023-03-06T01:16:36.655Z,5.03
2023-03-06T01:17:27.283Z,4.80
2023-03-06T01:18:18.161Z,4.95
2023-03-06T01:19:11.011Z,5.10
2023-03-06T01:20:01.192Z,4.97
2023-03-06T01:20:51.590Z,5.20
2023-03-06T01:21:42.017Z,5.40
2023-03-06T01:22:32.737Z,5.03
2023-03-06T01:23:23.303Z,5.22
2023-03-06T01:24:13.752Z,5.18
2023-03-06T01:25:04.359Z,4.72
2023-03-06T01:25:54.806Z,4.95
2023-03-06T01:26:45.238Z,4.80
2023-03-06T01:27:35.977Z,5.03
2023-03-06T01:28:26.630Z,4.80
2023-03-06T01:29:17.497Z,5.07
2023-03-06T01:30:08.855Z,4.93
2023-03-06T01:31:01.279Z,4.95
2023-03-06T01:31:51.654Z,5.20
2023-03-06T01:32:43.057Z,4.95
2023-03-06T01:33:34.287Z,4.60
2023-03-06T01:34:24.669Z,5.05
2023-03-06T01:35:15.384Z,4.68
2023-03-06T01:36:07.638Z,4.90
2023-03-06T01:36:57.893Z,5.30
2023-03-06T01:37:48.320Z,4.70
2023-03-06T01:38:39.001Z,4.43
2023-03-06T01:39:31.596Z,4.70
2023-03-06T01:40:21.721Z,4.70
2023-03-06T01:41:15.740Z,4.85
2023-03-06T01:42:06.790Z,4.55
2023-03-06T01:42:57.266Z,4.60
2023-03-06T01:43:47.812Z,4.70
2023-03-06T01:45:52.122Z,4.78
2023-03-06T01:46:43.861Z,5.03
2023-03-06T01:48:24.862Z,4.57
2023-03-06T01:49:29.506Z,4.55
2023-03-06T01:51:09.974Z,4.70
2023-03-06T01:52:02.763Z,4.93
2023-03-06T01:52:57.792Z,4.68
2023-03-06T01:53:48.091Z,4.60
2023-03-06T01:54:40.048Z,4.50
2023-03-06T01:55:32.772Z,4.65
2023-03-06T01:56:23.611Z,4.69
2023-03-06T01:57:17.860Z,4.28
2023-03-06T01:58:09.382Z,4.40
2023-03-06T01:58:59.538Z,4.93
2023-03-06T01:59:54.220Z,4.72
2023-03-06T02:00:44.767Z,4.47
2023-03-06T02:01:35.740Z,4.72
2023-03-06T02:02:26.305Z,4.90
2023-03-06T02:03:20.807Z,4.97
2023-03-06T02:04:14.035Z,4.65
2023-03-06T02:05:05.028Z,4.70
2023-03-06T02:06:45.600Z,4.62
2023-03-06T02:08:27.188Z,4.20
2023-03-06T02:10:08.068Z,4.68
2023-03-06T02:12:09.804Z,4.80
2023-03-06T02:12:59.955Z,4.55
2023-03-06T02:14:41.212Z,4.74
2023-03-06T02:15:32.028Z,4.50
2023-03-06T02:16:25.494Z,4.50
2023-03-06T02:17:17.553Z,4.47
2023-03-06T02:18:07.893Z,4.40
2023-03-06T02:18:59.066Z,4.12
2023-03-06T02:20:01.590Z,4.18
2023-03-06T02:20:53.667Z,4.60
2023-03-06T02:21:44.478Z,4.40
2023-03-06T02:22:46.224Z,4.45
2023-03-06T02:23:55.305Z,4.50
2023-03-06T02:25:20.886Z,4.30
2023-03-06T02:26:11.332Z,4.25
2023-03-06T02:27:02.231Z,4.22
2023-03-06T02:28:43.601Z,4.42
2023-03-06T02:29:34.525Z,4.40
2023-03-06T02:30:25.608Z,4.32
2023-03-06T02:31:24.658Z,4.32
2023-03-06T02:32:14.772Z,4.55
2023-03-06T02:34:06.457Z,4.28
2023-03-06T02:34:57.492Z,4.42
2023-03-06T02:35:51.306Z,4.65
2023-03-06T02:36:43.903Z,4.35
2023-03-06T02:37:34.673Z,4.20
2023-03-06T02:38:33.313Z,4.42
2023-03-06T02:39:25.322Z,4.28
2023-03-06T02:40:15.445Z,4.60
2023-03-06T02:41:07.271Z,4.35
2023-03-06T02:41:57.901Z,4.40
2023-03-06T02:42:50.040Z,4.15
2023-03-06T02:43:43.789Z,4.40
2023-03-06T02:44:34.891Z,4.35
2023-03-06T02:45:34.920Z,3.95
2023-03-06T02:46:25.298Z,4.10
2023-03-06T02:47:15.860Z,4.05
2023-03-06T02:48:09.535Z,4.40
2023-03-06T02:49:00.408Z,3.87
2023-03-06T02:49:50.962Z,4.28
2023-03-06T02:50:41.705Z,4.32
2023-03-06T02:51:32.374Z,4.15
2023-03-06T02:52:23.033Z,4.30
2023-03-06T02:53:14.596Z,4.22
2023-03-06T02:54:05.224Z,4.03
2023-03-06T02:54:55.551Z,4.18
2023-03-06T02:55:46.615Z,4.25
2023-03-06T02:56:37.122Z,4.55
2023-03-06T02:57:28.538Z,4.07
2023-03-06T02:59:10.407Z,4.48
2023-03-06T03:00:00.809Z,4.03
2023-03-06T03:00:51.274Z,3.90
2023-03-06T03:01:41.622Z,4.46
2023-03-06T03:02:31.948Z,4.12
2023-03-06T03:03:22.791Z,4.20
2023-03-06T03:04:13.152Z,4.00
2023-03-06T03:05:03.511Z,4.12
2023-03-06T03:05:54.106Z,4.30
2023-03-06T03:06:44.550Z,4.18
2023-03-06T03:07:34.971Z,4.10
2023-03-06T03:08:25.168Z,4.07
2023-03-06T03:10:06.231Z,4.03
2023-03-06T03:10:56.890Z,4.18
2023-03-06T03:11:46.881Z,4.20
2023-03-06T03:12:37.799Z,4.20
2023-03-06T03:13:28.395Z,4.53
2023-03-06T03:15:09.457Z,4.00
2023-03-06T03:16:02.059Z,4.32
2023-03-06T03:16:52.688Z,4.20
2023-03-06T03:17:43.417Z,4.03
2023-03-06T03:18:33.648Z,4.18
2023-03-06T03:19:23.682Z,4.07
2023-03-06T03:20:15.862Z,4.40
2023-03-06T03:21:11.121Z,4.37
2023-03-06T03:22:01.575Z,4.28
2023-03-06T03:22:53.439Z,4.20
2023-03-06T03:23:43.757Z,4.25
2023-03-06T03:24:34.383Z,4.37
2023-03-06T03:25:25.452Z,3.90
2023-03-06T03:26:17.954Z,4.40
2023-03-06T03:27:09.204Z,4.22
2023-03-06T03:27:59.374Z,3.95
2023-03-06T03:28:49.995Z,4.06
2023-03-06T03:29:40.890Z,4.37
2023-03-06T03:30:31.747Z,4.32
2023-03-06T03:31:22.333Z,4.28
2023-03-06T03:32:12.942Z,4.20
2023-03-06T03:33:03.615Z,4.05
2023-03-06T03:33:54.197Z,3.67
2023-03-06T03:34:44.570Z,4.25
2023-03-06T03:36:27.435Z,4.00
2023-03-06T03:37:18.104Z,3.95
2023-03-06T03:38:08.024Z,3.80
2023-03-06T03:38:58.633Z,4.28
2023-03-06T03:39:49.166Z,3.87
2023-03-06T03:40:39.329Z,4.03
2023-03-06T03:41:29.869Z,3.80
2023-03-06T03:42:20.479Z,4.05
2023-03-06T03:43:10.835Z,3.92
2023-03-06T03:44:01.216Z,4.03
2023-03-06T03:44:51.260Z,3.90
2023-03-06T03:45:41.498Z,4.05
2023-03-06T03:46:32.227Z,3.90
2023-03-06T03:47:22.719Z,4.28
2023-03-06T03:48:13.183Z,4.20
2023-03-06T03:49:03.335Z,3.85
2023-03-06T03:49:53.857Z,4.03
2023-03-06T03:50:44.611Z,3.80
2023-03-06T03:51:35.081Z,4.10
2023-03-06T03:52:25.377Z,3.90
2023-03-06T03:53:15.700Z,4.10
2023-03-06T03:54:06.969Z,3.80
2023-03-06T03:54:57.335Z,3.95
2023-03-06T03:55:48.654Z,3.62
2023-03-06T03:56:40.750Z,3.83
2023-03-06T03:57:31.190Z,3.95
2023-03-06T03:58:21.950Z,3.83
2023-03-06T03:59:12.318Z,4.03
2023-03-06T04:00:03.946Z,3.97
2023-03-06T04:00:54.421Z,3.95
2023-03-06T04:01:46.000Z,4.00
2023-03-06T04:02:36.303Z,4.10
2023-03-06T04:03:26.813Z,3.92
2023-03-06T04:04:17.306Z,4.47
2023-03-06T04:05:08.123Z,3.95
2023-03-06T04:05:58.785Z,4.00
2023-03-06T04:06:49.525Z,4.30
2023-03-06T04:07:39.641Z,3.60
2023-03-06T04:08:30.074Z,4.07
2023-03-06T04:09:20.400Z,3.85
2023-03-06T04:10:11.861Z,3.92
2023-03-06T04:11:03.151Z,3.77
2023-03-06T04:11:53.758Z,4.12
2023-03-06T04:12:43.772Z,3.92
2023-03-06T04:13:33.951Z,4.28
2023-03-06T04:14:24.632Z,4.18
2023-03-06T04:15:15.251Z,4.35
2023-03-06T04:16:05.776Z,4.15
2023-03-06T04:16:56.043Z,3.60
2023-03-06T04:17:46.520Z,3.95
2023-03-06T04:19:27.197Z,3.95
2023-03-06T04:20:17.941Z,3.95
2023-03-06T04:21:08.184Z,4.20
2023-03-06T04:22:02.492Z,4.25
2023-03-06T04:22:52.904Z,3.90
2023-03-06T04:23:43.420Z,4.15
2023-03-06T04:24:33.981Z,4.12
2023-03-06T04:25:24.535Z,3.95
2023-03-06T04:26:14.852Z,4.20
2023-03-06T04:27:05.262Z,3.58
2023-03-06T04:27:55.710Z,3.95
2023-03-06T04:28:46.151Z,4.10
2023-03-06T04:29:36.574Z,3.73
2023-03-06T04:30:27.057Z,3.80
2023-03-06T04:31:17.660Z,3.92
2023-03-06T04:32:11.573Z,3.67
2023-03-06T04:33:02.070Z,4.00
2023-03-06T04:33:52.507Z,3.90
2023-03-06T04:34:43.146Z,4.18
2023-03-06T04:36:31.695Z,4.10
2023-03-06T04:37:24.130Z,3.95
2023-03-06T04:39:04.401Z,3.80
2023-03-06T04:40:45.737Z,4.00
2023-03-06T04:42:26.156Z,3.80
2023-03-06T04:44:07.272Z,3.90
2023-03-06T04:44:57.964Z,4.03
2023-03-06T04:46:38.304Z,3.93
2023-03-06T04:48:18.988Z,4.10
2023-03-06T04:49:09.975Z,3.96
2023-03-06T04:50:00.052Z,3.92
2023-03-06T04:51:40.432Z,3.85
2023-03-06T04:52:31.239Z,4.10
2023-03-06T04:53:21.921Z,4.00
2023-03-06T04:55:08.673Z,3.97
2023-03-06T04:55:59.474Z,3.95
2023-03-06T04:57:43.586Z,4.00
2023-03-06T04:58:34.010Z,3.80
2023-03-06T05:00:17.409Z,3.80
2023-03-06T05:01:07.793Z,3.83
2023-03-06T05:02:48.440Z,3.65
2023-03-06T05:03:39.287Z,4.10
2023-03-06T05:04:29.996Z,4.10
2023-03-06T05:05:20.180Z,3.53
2023-03-06T05:06:10.856Z,3.90
2023-03-06T05:07:01.487Z,3.95
2023-03-06T05:08:41.882Z,3.77
2023-03-06T05:09:33.943Z,3.47
2023-03-06T05:10:24.628Z,4.18
2023-03-06T05:11:15.228Z,3.75
2023-03-06T05:12:05.716Z,4.20
2023-03-06T05:12:56.044Z,3.95
2023-03-06T05:14:37.640Z,3.80
2023-03-06T05:15:27.746Z,3.90
2023-03-06T05:16:21.126Z,3.70
2023-03-06T05:18:01.615Z,3.67
2023-03-06T05:19:41.877Z,3.90
2023-03-06T05:21:22.535Z,4.07
2023-03-06T05:23:02.830Z,3.80
2023-03-06T05:23:53.202Z,3.58
2023-03-06T05:25:33.688Z,4.10
2023-03-06T05:26:24.750Z,3.78
2023-03-06T05:27:16.809Z,3.90
2023-03-06T05:28:07.835Z,4.20
2023-03-06T05:28:58.313Z,4.18
2023-03-06T05:29:48.799Z,3.95
2023-03-06T05:30:39.842Z,3.80
2023-03-06T05:32:21.604Z,4.00
2023-03-06T05:33:11.702Z,4.07
2023-03-06T05:34:02.226Z,4.07
2023-03-06T05:34:52.723Z,4.12
2023-03-06T05:35:47.405Z,4.30
2023-03-06T05:36:37.675Z,4.30
2023-03-06T05:37:28.350Z,4.30
2023-03-06T05:38:18.853Z,4.00
2023-03-06T05:39:09.078Z,4.10
2023-03-06T05:39:59.504Z,4.30
2023-03-06T05:40:50.048Z,4.05
2023-03-06T05:42:31.070Z,4.63
2023-03-06T05:44:12.353Z,4.57
2023-03-06T05:46:02.631Z,4.12
2023-03-06T05:47:43.372Z,4.42
2023-03-06T05:49:23.650Z,4.22
2023-03-06T05:51:05.305Z,4.23
2023-03-06T05:52:46.059Z,4.10
2023-03-06T05:53:36.694Z,4.20
2023-03-06T05:54:27.083Z,4.50
2023-03-06T05:55:19.684Z,4.10
2023-03-06T05:56:10.081Z,4.22
2023-03-06T05:57:00.867Z,4.20
2023-03-06T05:58:42.403Z,4.37
2023-03-06T06:00:24.851Z,4.26
2023-03-06T06:01:16.675Z,4.27
2023-03-06T06:02:07.277Z,4.18
2023-03-06T06:03:01.226Z,4.10
2023-03-06T06:03:51.666Z,4.65
2023-03-06T06:04:42.075Z,4.05
2023-03-06T06:05:32.408Z,4.47
2023-03-06T06:07:14.074Z,4.30
2023-03-06T06:08:04.552Z,4.15
2023-03-06T06:08:54.789Z,4.28
2023-03-06T06:10:36.109Z,4.80
2023-03-06T06:12:16.346Z,5.23
2023-03-06T06:13:06.822Z,6.03
2023-03-06T06:13:57.138Z,7.45
2023-03-06T06:15:38.497Z,6.24
2023-03-06T06:16:29.129Z,6.50
2023-03-06T06:17:19.776Z,6.30
2023-03-06T06:18:10.204Z,6.45
2023-03-06T06:19:00.708Z,5.70
2023-03-06T06:20:41.658Z,5.34
2023-03-06T06:21:32.187Z,5.20
2023-03-06T06:22:22.946Z,5.70
2023-03-06T06:24:04.175Z,5.57
2023-03-06T06:25:45.504Z,5.60
2023-03-06T06:27:26.349Z,5.33
2023-03-06T06:29:07.223Z,5.00
2023-03-06T06:30:48.272Z,5.07
2023-03-06T06:32:29.638Z,6.47
2023-03-06T06:34:12.984Z,7.00
2023-03-06T06:35:54.539Z,6.90
2023-03-06T06:37:34.885Z,7.43
2023-03-06T06:39:16.652Z,9.83
2023-03-06T06:40:07.956Z,10.30
2023-03-06T06:41:31.185Z,10.40
2023-03-06T06:42:29.443Z,12.40
2023-03-06T06:44:14.500Z,12.45
2023-03-06T06:45:05.639Z,12.60
2023-03-06T06:46:10.086Z,12.40
2023-03-06T06:48:15.158Z,11.87
2023-03-06T06:49:07.766Z,11.40
2023-03-06T06:50:55.829Z,11.87
2023-03-06T06:51:46.549Z,11.30
2023-03-06T06:52:36.999Z,11.97
2023-03-06T06:54:20.239Z,11.93
2023-03-06T06:55:11.168Z,11.80
2023-03-06T06:56:01.555Z,12.27
2023-03-06T06:56:51.839Z,15.10
2023-03-06T06:57:42.615Z,16.85
2023-03-06T06:58:33.047Z,25.98
2023-03-06T06:59:24.010Z,31.10
2023-03-06T07:00:14.840Z,34.62
2023-03-06T07:01:12.399Z,39.55
2023-03-06T07:02:02.983Z,60.35
2023-03-06T07:02:53.445Z,98.47
2023-03-06T07:03:44.120Z,98.65
2023-03-06T07:04:34.671Z,99.00
2023-03-06T07:05:24.935Z,99.18
2023-03-06T07:06:15.124Z,92.20
2023-03-06T07:07:05.636Z,79.50
2023-03-06T07:07:56.312Z,70.43
2023-03-06T07:08:46.774Z,66.28
2023-03-06T07:09:39.820Z,59.40
2023-03-06T07:10:30.614Z,56.90
2023-03-06T07:11:21.321Z,54.10
2023-03-06T07:12:12.185Z,50.83
2023-03-06T07:13:02.996Z,49.83
2023-03-06T07:13:53.805Z,45.22
2023-03-06T07:14:44.253Z,44.97
2023-03-06T07:15:34.773Z,42.42
2023-03-06T07:16:25.411Z,42.16
2023-03-06T07:17:15.953Z,40.42
2023-03-06T07:18:06.620Z,38.97
2023-03-06T07:18:57.186Z,38.28
2023-03-06T07:19:48.357Z,36.30
2023-03-06T07:20:39.799Z,36.65
2023-03-06T07:21:30.659Z,33.90
2023-03-06T07:22:20.997Z,34.97
2023-03-06T07:23:12.691Z,32.25
2023-03-06T07:24:03.424Z,33.80
2023-03-06T07:24:53.757Z,31.85
2023-03-06T07:25:44.374Z,33.75
2023-03-06T07:26:35.261Z,31.40
2023-03-06T07:27:26.378Z,31.95
2023-03-06T07:28:18.615Z,31.55
2023-03-06T07:29:10.744Z,33.05
2023-03-06T07:30:01.552Z,33.35
2023-03-06T07:30:52.112Z,34.03
2023-03-06T07:31:42.791Z,34.20
2023-03-06T07:32:33.504Z,33.75
2023-03-06T07:33:24.431Z,36.35
2023-03-06T07:34:15.016Z,34.67
2023-03-06T07:35:19.440Z,33.53
2023-03-06T07:36:12.824Z,33.97
2023-03-06T07:37:04.509Z,35.13
2023-03-06T07:37:55.061Z,34.38
2023-03-06T07:38:45.653Z,33.78
2023-03-06T07:39:36.302Z,35.90
2023-03-06T07:40:26.846Z,35.17
2023-03-06T07:41:21.214Z,31.90
2023-03-06T07:42:13.686Z,31.05
2023-03-06T07:43:18.372Z,31.42
2023-03-06T07:44:09.882Z,29.67
2023-03-06T07:45:01.301Z,29.15
2023-03-06T07:45:58.948Z,27.37
2023-03-06T07:46:49.409Z,28.30
2023-03-06T07:47:40.401Z,27.95
2023-03-06T07:48:31.383Z,26.77
2023-03-06T07:49:21.802Z,26.60
2023-03-06T07:50:12.319Z,26.55
2023-03-06T07:51:04.723Z,27.85
2023-03-06T07:51:55.547Z,29.50
2023-03-06T07:52:46.371Z,29.02
2023-03-06T07:53:36.984Z,28.73
2023-03-06T07:54:28.334Z,29.77
2023-03-06T07:55:18.792Z,31.45
2023-03-06T07:56:09.608Z,29.95
2023-03-06T07:57:00.415Z,28.90
2023-03-06T07:57:51.695Z,29.67
2023-03-06T07:58:43.953Z,28.52
2023-03-06T07:59:34.209Z,25.05
2023-03-06T08:00:25.524Z,28.33
2023-03-06T08:01:18.300Z,23.12
2023-03-06T08:02:11.191Z,22.45
2023-03-06T08:03:02.350Z,21.83
2023-03-06T08:03:53.414Z,22.20
2023-03-06T08:04:44.109Z,22.50
2023-03-06T08:05:34.715Z,21.55
2023-03-06T08:06:26.445Z,23.10
2023-03-06T08:07:16.991Z,23.99
2023-03-06T08:08:07.427Z,23.25
2023-03-06T08:09:00.315Z,25.08
2023-03-06T08:09:51.108Z,23.48
2023-03-06T08:10:41.687Z,22.60
2023-03-06T08:11:33.453Z,21.85
2023-03-06T08:12:23.891Z,22.77
2023-03-06T08:13:14.765Z,23.65
2023-03-06T08:14:05.471Z,22.70
2023-03-06T08:14:55.778Z,22.00
2023-03-06T08:15:49.605Z,23.48
2023-03-06T08:16:40.237Z,22.33
2023-03-06T08:17:30.429Z,21.73
2023-03-06T08:18:20.890Z,21.48
2023-03-06T08:19:11.572Z,20.75
2023-03-06T08:20:02.237Z,19.90
2023-03-06T08:21:01.974Z,20.08
2023-03-06T08:21:52.768Z,18.65
2023-03-06T08:22:43.458Z,18.55
2023-03-06T08:23:34.306Z,14.73
2023-03-06T08:24:25.326Z,14.13
2023-03-06T08:25:15.843Z,14.48
2023-03-06T08:26:11.872Z,17.30
2023-03-06T08:27:02.770Z,17.25
2023-03-06T08:27:53.315Z,16.23
2023-03-06T08:28:43.867Z,16.55
2023-03-06T08:29:34.235Z,18.20
2023-03-06T08:30:25.062Z,18.58
2023-03-06T08:31:30.849Z,16.20
2023-03-06T08:32:21.311Z,16.60
2023-03-06T08:33:11.849Z,16.56
2023-03-06T08:34:04.153Z,16.85
2023-03-06T08:34:54.677Z,16.26
2023-03-06T08:35:45.164Z,16.33
2023-03-06T08:36:35.807Z,17.92
2023-03-06T08:37:26.321Z,17.83
2023-03-06T08:38:17.168Z,17.35
2023-03-06T08:39:08.048Z,15.70
2023-03-06T08:39:59.053Z,16.12
2023-03-06T08:40:49.635Z,15.40
2023-03-06T08:41:40.479Z,16.67
2023-03-06T08:42:31.407Z,17.40
2023-03-06T08:43:22.121Z,14.85
2023-03-06T08:44:13.034Z,17.65
2023-03-06T08:45:05.513Z,16.62
2023-03-06T08:45:57.683Z,14.02
2023-03-06T08:46:49.040Z,15.18
2023-03-06T08:47:40.082Z,15.18
2023-03-06T08:48:30.813Z,15.98
2023-03-06T08:49:21.747Z,16.62
2023-03-06T08:50:12.380Z,15.35
2023-03-06T08:51:03.235Z,15.25
2023-03-06T08:51:53.778Z,14.45
2023-03-06T08:52:44.576Z,14.90
2023-03-06T08:53:43.051Z,14.48
2023-03-06T08:54:36.017Z,14.75
2023-03-06T08:55:28.176Z,13.82
2023-03-06T08:56:26.090Z,13.62
2023-03-06T08:57:19.152Z,14.32
2023-03-06T08:58:10.149Z,15.07
2023-03-06T08:59:02.643Z,14.02
2023-03-06T08:59:53.763Z,15.40
2023-03-06T09:00:44.469Z,14.43
2023-03-06T09:01:36.899Z,13.45
2023-03-06T09:02:27.739Z,15.63
2023-03-06T09:03:18.870Z,13.45
2023-03-06T09:04:10.758Z,14.40
2023-03-06T09:05:01.709Z,14.80
2023-03-06T09:05:52.341Z,15.98
2023-03-06T09:06:43.238Z,14.40
2023-03-06T09:07:33.940Z,14.32
2023-03-06T09:08:27.091Z,14.60
2023-03-06T09:09:17.333Z,14.38
2023-03-06T09:10:08.567Z,14.48
2023-03-06T09:10:59.079Z,13.10
2023-03-06T09:11:53.723Z,14.45
2023-03-06T09:12:50.151Z,13.32
2023-03-06T09:13:42.846Z,13.80
2023-03-06T09:14:32.989Z,14.18
2023-03-06T09:15:23.819Z,13.15
2023-03-06T09:16:14.278Z,13.13
2023-03-06T09:17:04.958Z,13.07
2023-03-06T09:17:55.533Z,12.82
2023-03-06T09:18:46.137Z,11.75
2023-03-06T09:19:37.790Z,12.82
2023-03-06T09:20:28.423Z,12.18
2023-03-06T09:21:19.630Z,11.82
2023-03-06T09:22:10.256Z,12.20
2023-03-06T09:23:00.877Z,12.68
2023-03-06T09:23:31.891Z,13.52
2023-03-06T09:23:44.925Z,13.10
2023-03-06T09:23:57.900Z,12.77
2023-03-06T09:24:10.848Z,12.45
2023-03-06T09:24:23.845Z,12.32
2023-03-06T09:24:37.012Z,12.43
2023-03-06T09:24:50.792Z,13.25
2023-03-06T09:25:04.912Z,13.13
2023-03-06T09:25:20.533Z,13.20
2023-03-06T09:25:33.539Z,13.27
2023-03-06T09:25:52.489Z,12.60
2023-03-06T09:26:08.466Z,12.63
2023-03-06T09:26:21.886Z,13.35
2023-03-06T09:26:45.590Z,13.00
2023-03-06T09:26:59.338Z,13.25
2023-03-06T09:27:12.462Z,12.80
2023-03-06T09:27:25.612Z,11.20
2023-03-06T09:27:38.514Z,11.52
2023-03-06T09:28:05.207Z,11.40
2023-03-06T09:28:23.776Z,11.93
2023-03-06T09:28:39.106Z,12.45
2023-03-06T09:28:52.253Z,12.20
2023-03-06T09:29:05.203Z,12.55
2023-03-06T09:29:20.567Z,12.43
2023-03-06T09:29:33.605Z,12.63
2023-03-06T09:29:46.591Z,12.50
2023-03-06T09:29:59.631Z,12.40
2023-03-06T09:30:14.863Z,13.52
2023-03-06T09:30:27.783Z,13.35
2023-03-06T09:30:43.617Z,12.40
2023-03-06T09:30:56.733Z,12.95
2023-03-06T09:31:14.312Z,13.23
2023-03-06T09:31:27.316Z,12.70
2023-03-06T09:31:40.276Z,12.68
2023-03-06T09:31:53.250Z,12.40
2023-03-06T09:32:06.595Z,12.55
2023-03-06T09:32:19.618Z,13.00
2023-03-06T09:32:32.701Z,12.75
2023-03-06T09:32:45.774Z,12.05
2023-03-06T09:32:58.854Z,12.98
2023-03-06T09:33:11.836Z,13.18
2023-03-06T09:33:24.742Z,12.50
2023-03-06T09:33:37.995Z,12.07
2023-03-06T09:33:50.942Z,11.57
2023-03-06T09:34:03.855Z,11.07
2023-03-06T09:34:19.472Z,11.52
2023-03-06T09:34:32.708Z,11.55
2023-03-06T09:34:45.691Z,11.65
2023-03-06T09:34:58.793Z,11.75
2023-03-06T09:35:11.944Z,11.25
2023-03-06T09:35:24.926Z,11.30
2023-03-06T09:35:50.167Z,11.75
2023-03-06T09:36:03.645Z,11.88
2023-03-06T09:36:18.685Z,12.13
2023-03-06T09:36:32.431Z,12.15
2023-03-06T09:36:56.814Z,11.77
2023-03-06T09:37:13.713Z,11.30
2023-03-06T09:37:27.350Z,10.93
2023-03-06T09:37:40.995Z,10.90
2023-03-06T09:37:54.046Z,11.35
2023-03-06T09:38:07.558Z,11.20
2023-03-06T09:38:21.030Z,10.95
2023-03-06T09:38:34.037Z,10.50
2023-03-06T09:38:48.392Z,11.07
2023-03-06T09:39:01.488Z,10.85
2023-03-06T09:39:14.426Z,10.15
2023-03-06T09:39:27.599Z,10.27
2023-03-06T09:39:40.602Z,10.95
2023-03-06T09:39:53.599Z,11.07
2023-03-06T09:40:07.067Z,11.50
2023-03-06T09:40:25.566Z,11.50
2023-03-06T09:40:55.703Z,11.30
2023-03-06T09:41:13.721Z,10.75
2023-03-06T09:41:40.521Z,10.30
2023-03-06T09:41:53.462Z,10.82
2023-03-06T09:42:08.979Z,10.25
2023-03-06T09:42:22.126Z,10.65
2023-03-06T09:42:36.134Z,11.27
2023-03-06T09:42:49.163Z,11.32
2023-03-06T09:43:02.068Z,10.65
2023-03-06T09:43:20.091Z,10.57
2023-03-06T09:43:37.362Z,11.05
2023-03-06T09:43:51.904Z,10.90
2023-03-06T09:44:15.735Z,10.45
2023-03-06T09:44:30.403Z,10.13
2023-03-06T09:44:43.617Z,10.00
2023-03-06T09:44:58.385Z,10.13
2023-03-06T09:45:13.198Z,10.55
2023-03-06T09:45:26.279Z,10.60
2023-03-06T09:45:39.270Z,10.55
2023-03-06T09:45:52.221Z,11.00
2023-03-06T09:46:17.070Z,10.23
2023-03-06T09:46:56.991Z,9.88
2023-03-06T09:48:07.619Z,10.25
2023-03-06T09:48:20.817Z,9.93
2023-03-06T09:48:50.131Z,10.13
2023-03-06T09:49:10.538Z,9.80
2023-03-06T09:49:24.044Z,9.52
2023-03-06T09:50:10.106Z,9.63
2023-03-06T09:50:45.301Z,9.80
2023-03-06T09:51:11.542Z,10.00
2023-03-06T09:51:34.230Z,11.12
2023-03-06T09:52:24.156Z,10.70
2023-03-06T09:53:08.940Z,10.85
2023-03-06T09:53:33.202Z,10.05
2023-03-06T09:53:58.242Z,9.88
2023-03-06T09:54:14.830Z,10.23
